createdAt,value
2022-12-01T00:01:10.959Z,31.27
2022-12-01T00:03:37.919Z,32.75
2022-12-01T00:06:11.487Z,33.97
2022-12-01T00:08:38.472Z,37.75
2022-12-01T00:11:12.103Z,33.13
2022-12-01T00:13:39.023Z,30.58
2022-12-01T00:16:13.587Z,33.35
2022-12-01T00:18:40.563Z,32.05
2022-12-01T00:21:13.777Z,33.17
2022-12-01T00:23:43.655Z,39.13
2022-12-01T00:26:10.679Z,32.30
2022-12-01T00:28:37.473Z,33.05
2022-12-01T00:31:11.104Z,37.08
2022-12-01T00:33:38.786Z,36.45
2022-12-01T00:36:06.166Z,35.95
2022-12-01T00:38:33.481Z,32.15
2022-12-01T00:41:00.224Z,34.85
2022-12-01T00:43:27.079Z,35.65
2022-12-01T00:45:53.917Z,30.95
2022-12-01T00:48:20.755Z,33.97
2022-12-01T00:50:47.775Z,41.65
2022-12-01T00:53:14.564Z,33.08
2022-12-01T00:55:41.347Z,32.55
2022-12-01T00:58:08.295Z,32.13
2022-12-01T01:00:38.651Z,37.15
2022-12-01T01:03:08.444Z,33.38
2022-12-01T01:05:40.016Z,35.58
2022-12-01T01:08:11.910Z,41.08
2022-12-01T01:10:39.801Z,31.13
2022-12-01T01:13:06.773Z,36.10
2022-12-01T01:15:33.821Z,31.63
2022-12-01T01:18:01.258Z,27.50
2022-12-01T01:20:28.458Z,32.50
2022-12-01T01:22:55.215Z,33.90
2022-12-01T01:25:22.805Z,30.23
2022-12-01T01:27:49.885Z,34.63
2022-12-01T01:30:17.221Z,36.38
2022-12-01T01:32:43.969Z,31.48
2022-12-01T01:35:10.810Z,32.85
2022-12-01T01:37:37.552Z,32.38
2022-12-01T01:40:04.882Z,32.58
2022-12-01T01:42:31.633Z,35.50
2022-12-01T01:44:59.215Z,32.63
2022-12-01T01:47:40.774Z,31.98
2022-12-01T01:50:10.955Z,35.20
2022-12-01T01:52:49.980Z,29.65
2022-12-01T01:55:17.115Z,37.22
2022-12-01T01:57:44.950Z,36.75
2022-12-01T02:00:15.984Z,39.20
2022-12-01T02:02:44.768Z,30.45
2022-12-01T02:05:16.657Z,32.05
2022-12-01T02:07:43.564Z,33.70
2022-12-01T02:10:13.127Z,32.83
2022-12-01T02:13:06.155Z,29.30
2022-12-01T02:16:24.110Z,32.80
2022-12-01T02:19:16.955Z,38.58
2022-12-01T02:22:01.820Z,43.70
2022-12-01T02:24:50.631Z,32.17
2022-12-01T02:27:29.768Z,36.88
2022-12-01T02:30:02.143Z,32.47
2022-12-01T02:32:47.114Z,30.02
2022-12-01T02:35:16.780Z,37.58
2022-12-01T02:38:03.320Z,41.25
2022-12-01T02:40:44.743Z,42.85
2022-12-01T02:43:33.207Z,42.55
2022-12-01T02:46:10.904Z,46.45
2022-12-01T02:48:40.994Z,45.30
2022-12-01T02:51:14.710Z,51.17
2022-12-01T02:53:41.705Z,48.67
2022-12-01T02:56:13.492Z,44.30
2022-12-01T02:58:40.377Z,49.85
2022-12-01T03:01:12.621Z,39.78
2022-12-01T03:03:58.302Z,44.53
2022-12-01T03:06:31.039Z,43.72
2022-12-01T03:09:06.267Z,49.60
2022-12-01T03:11:42.459Z,41.00
2022-12-01T03:14:14.529Z,43.13
2022-12-01T03:16:51.951Z,45.08
2022-12-01T03:19:32.067Z,41.05
2022-12-01T03:22:04.410Z,37.55
2022-12-01T03:24:33.095Z,46.35
2022-12-01T03:27:01.643Z,39.47
2022-12-01T03:29:33.718Z,36.05
2022-12-01T03:32:10.671Z,39.55
2022-12-01T03:34:56.673Z,33.15
2022-12-01T03:37:44.329Z,46.35
2022-12-01T03:40:18.328Z,40.03
2022-12-01T03:42:52.819Z,37.53
2022-12-01T03:45:33.206Z,45.63
2022-12-01T03:48:00.350Z,49.70
2022-12-01T03:50:36.712Z,39.50
2022-12-01T03:53:19.364Z,45.25
2022-12-01T03:55:53.351Z,41.72
2022-12-01T03:58:34.310Z,54.83
2022-12-01T04:01:05.070Z,58.08
2022-12-01T04:03:31.801Z,50.58
2022-12-01T04:05:58.985Z,52.65
2022-12-01T04:08:25.999Z,49.88
2022-12-01T04:10:52.812Z,51.33
2022-12-01T04:13:23.279Z,51.38
2022-12-01T04:15:51.321Z,51.70
2022-12-01T04:18:18.926Z,55.50
2022-12-01T04:20:50.240Z,54.95
2022-12-01T04:23:35.665Z,46.58
2022-12-01T04:26:04.671Z,46.78
2022-12-01T04:28:31.565Z,56.17
2022-12-01T04:30:58.360Z,51.28
2022-12-01T04:33:25.215Z,49.60
2022-12-01T04:36:01.338Z,52.72
2022-12-01T04:38:30.942Z,45.65
2022-12-01T04:40:58.029Z,55.03
2022-12-01T04:43:24.866Z,50.15
2022-12-01T04:45:51.594Z,47.97
2022-12-01T04:48:18.309Z,48.83
2022-12-01T04:50:45.015Z,51.70
2022-12-01T04:53:11.764Z,52.13
2022-12-01T04:55:39.325Z,48.42
2022-12-01T04:58:06.500Z,53.25
2022-12-01T05:00:33.945Z,43.75
2022-12-01T05:03:01.200Z,52.20
2022-12-01T05:05:28.119Z,50.97
2022-12-01T05:07:55.184Z,54.47
2022-12-01T05:10:22.449Z,47.10
2022-12-01T05:12:49.819Z,49.88
2022-12-01T05:15:16.782Z,49.70
2022-12-01T05:17:43.885Z,47.53
2022-12-01T05:20:37.941Z,47.13
2022-12-01T05:23:06.110Z,45.85
2022-12-01T05:25:33.773Z,45.85
2022-12-01T05:28:00.660Z,55.92
2022-12-01T05:30:28.954Z,49.17
2022-12-01T05:32:55.948Z,55.33
2022-12-01T05:35:22.751Z,46.58
2022-12-01T05:37:49.635Z,46.35
2022-12-01T05:40:16.522Z,46.92
2022-12-01T05:42:43.346Z,46.55
2022-12-01T05:45:10.505Z,48.65
2022-12-01T05:47:37.237Z,42.75
2022-12-01T05:50:05.945Z,50.33
2022-12-01T05:52:36.228Z,45.80
2022-12-01T05:55:04.462Z,42.42
2022-12-01T05:57:32.160Z,41.58
2022-12-01T05:59:59.262Z,41.03
2022-12-01T06:02:26.945Z,40.05
2022-12-01T06:04:53.973Z,39.88
2022-12-01T06:07:23.439Z,40.50
2022-12-01T06:09:50.533Z,41.15
2022-12-01T06:12:17.438Z,39.90
2022-12-01T06:14:44.286Z,36.00
2022-12-01T06:17:11.728Z,42.95
2022-12-01T06:19:39.287Z,33.80
2022-12-01T06:22:06.051Z,46.83
2022-12-01T06:24:32.774Z,41.33
2022-12-01T06:26:59.572Z,39.50
2022-12-01T06:29:26.388Z,34.58
2022-12-01T06:31:53.227Z,40.00
2022-12-01T06:34:19.990Z,37.85
2022-12-01T06:36:46.748Z,47.92
2022-12-01T06:39:15.669Z,44.30
2022-12-01T06:41:43.282Z,40.35
2022-12-01T06:44:11.066Z,39.60
2022-12-01T06:46:38.068Z,43.50
2022-12-01T06:49:05.101Z,38.45
2022-12-01T06:51:34.230Z,35.40
2022-12-01T06:54:05.448Z,43.55
2022-12-01T06:56:32.547Z,49.38
2022-12-01T06:58:59.867Z,38.33
2022-12-01T07:01:27.074Z,36.33
2022-12-01T07:03:54.844Z,33.72
2022-12-01T07:06:21.672Z,40.83
2022-12-01T07:08:48.471Z,36.90
2022-12-01T07:11:16.451Z,39.50
2022-12-01T07:13:49.486Z,39.22
2022-12-01T07:16:16.325Z,31.83
2022-12-01T07:18:45.062Z,38.95
2022-12-01T07:21:13.623Z,37.75
2022-12-01T07:23:40.822Z,38.40
2022-12-01T07:26:13.490Z,37.95
2022-12-01T07:28:40.244Z,44.20
2022-12-01T07:31:08.283Z,43.10
2022-12-01T07:33:36.218Z,36.72
2022-12-01T07:36:03.992Z,42.90
2022-12-01T07:38:32.791Z,42.17
2022-12-01T07:41:11.436Z,37.78
2022-12-01T07:43:39.336Z,42.20
2022-12-01T07:46:17.179Z,47.05
2022-12-01T07:48:47.623Z,42.70
2022-12-01T07:51:18.655Z,39.67
2022-12-01T07:53:46.937Z,44.47
2022-12-01T07:56:14.294Z,38.22
2022-12-01T07:58:41.732Z,40.15
2022-12-01T08:01:17.367Z,38.42
2022-12-01T08:03:44.477Z,38.50
2022-12-01T08:06:12.037Z,36.25
2022-12-01T08:08:40.743Z,34.58
2022-12-01T08:11:11.559Z,39.50
2022-12-01T08:13:39.507Z,37.15
2022-12-01T08:16:08.059Z,34.38
2022-12-01T08:18:35.964Z,42.35
2022-12-01T08:21:03.922Z,36.47
2022-12-01T08:23:30.757Z,36.30
2022-12-01T08:26:04.570Z,37.75
2022-12-01T08:28:31.362Z,32.65
2022-12-01T08:30:58.440Z,40.60
2022-12-01T08:33:25.256Z,35.92
2022-12-01T08:35:52.102Z,36.60
2022-12-01T08:38:18.839Z,32.00
2022-12-01T08:40:45.555Z,35.80
2022-12-01T08:43:28.348Z,34.28
2022-12-01T08:46:00.427Z,31.73
2022-12-01T08:48:30.041Z,38.92
2022-12-01T08:51:07.053Z,36.58
2022-12-01T08:53:35.361Z,36.10
2022-12-01T08:56:05.170Z,38.67
2022-12-01T08:58:32.061Z,33.83
2022-12-01T09:01:10.451Z,36.40
2022-12-01T09:03:38.597Z,32.10
2022-12-01T09:06:09.818Z,40.05
2022-12-01T09:08:37.322Z,34.97
2022-12-01T09:11:11.392Z,38.00
2022-12-01T09:13:39.666Z,37.15
2022-12-01T09:16:10.592Z,34.33
2022-12-01T09:18:37.654Z,38.03
2022-12-01T09:21:19.833Z,36.95
2022-12-01T09:23:47.272Z,36.10
2022-12-01T09:26:18.470Z,33.92
2022-12-01T09:28:50.463Z,37.15
2022-12-01T09:31:18.474Z,36.70
2022-12-01T09:33:45.521Z,34.85
2022-12-01T09:36:13.145Z,35.58
2022-12-01T09:38:40.361Z,33.50
2022-12-01T09:41:31.757Z,40.35
2022-12-01T09:44:14.141Z,35.58
2022-12-01T09:47:06.463Z,39.35
2022-12-01T09:49:43.712Z,38.13
2022-12-01T09:52:13.297Z,37.42
2022-12-01T09:54:41.050Z,38.22
2022-12-01T09:57:32.097Z,38.50
2022-12-01T10:00:02.361Z,36.63
2022-12-01T10:02:47.802Z,34.70
2022-12-01T10:05:25.129Z,35.10
2022-12-01T10:07:57.511Z,36.65
2022-12-01T10:10:33.042Z,41.08
2022-12-01T10:13:00.545Z,38.13
2022-12-01T10:15:54.583Z,36.80
2022-12-01T10:18:39.413Z,33.78
2022-12-01T10:21:20.770Z,34.42
2022-12-01T10:24:05.822Z,39.40
2022-12-01T10:26:52.873Z,36.30
2022-12-01T10:29:25.621Z,37.70
2022-12-01T10:31:57.909Z,35.60
2022-12-01T10:34:30.189Z,35.97
2022-12-01T10:36:57.686Z,34.05
2022-12-01T10:39:41.062Z,36.33
2022-12-01T10:42:17.215Z,31.13
2022-12-01T10:44:45.334Z,32.25
2022-12-01T10:47:25.536Z,36.70
2022-12-01T10:49:52.973Z,32.40
2022-12-01T10:52:55.612Z,34.58
2022-12-01T10:55:30.759Z,32.60
2022-12-01T10:58:02.427Z,32.50
2022-12-01T11:00:59.745Z,33.50
2022-12-01T11:03:28.644Z,39.53
2022-12-01T11:05:58.807Z,36.83
2022-12-01T11:08:38.987Z,38.30
2022-12-01T11:11:06.243Z,37.42
2022-12-01T11:13:36.696Z,37.22
2022-12-01T11:16:06.304Z,37.03
2022-12-01T11:18:38.742Z,43.10
2022-12-01T11:21:27.871Z,34.83
2022-12-01T11:23:56.114Z,34.75
2022-12-01T11:26:27.980Z,31.50
2022-12-01T11:28:56.077Z,33.80
2022-12-01T11:31:36.725Z,30.60
2022-12-01T11:34:04.151Z,36.85
2022-12-01T11:36:46.186Z,36.05
2022-12-01T11:39:43.951Z,38.22
2022-12-01T11:42:13.897Z,32.80
2022-12-01T11:44:52.397Z,38.95
2022-12-01T11:47:23.689Z,33.42
2022-12-01T11:50:03.024Z,37.55
2022-12-01T11:52:36.611Z,40.13
2022-12-01T11:55:20.369Z,40.28
2022-12-01T11:57:50.542Z,33.50
2022-12-01T12:00:21.502Z,37.63
2022-12-01T12:03:07.152Z,50.80
2022-12-01T12:05:49.220Z,38.42
2022-12-01T12:08:39.374Z,36.85
2022-12-01T12:11:19.915Z,41.13
2022-12-01T12:14:08.224Z,46.88
2022-12-01T12:17:03.683Z,34.25
2022-12-01T12:20:08.659Z,33.15
2022-12-01T12:23:05.991Z,38.17
2022-12-01T12:25:54.567Z,41.20
2022-12-01T12:28:32.949Z,40.40
2022-12-01T12:31:17.544Z,37.30
2022-12-01T12:33:56.238Z,37.80
2022-12-01T12:36:52.134Z,42.03
2022-12-01T12:39:22.182Z,38.63
2022-12-01T12:41:53.038Z,32.70
2022-12-01T12:44:51.515Z,39.90
2022-12-01T12:47:47.557Z,39.22
2022-12-01T12:50:41.203Z,38.95
2022-12-01T12:53:38.512Z,34.25
2022-12-01T12:56:10.133Z,39.13
2022-12-01T12:59:01.394Z,37.17
2022-12-01T13:02:03.074Z,37.80
2022-12-01T13:04:50.428Z,36.90
2022-12-01T13:07:34.498Z,38.45
2022-12-01T13:10:19.482Z,30.83
2022-12-01T13:12:56.177Z,40.20
2022-12-01T13:15:23.064Z,36.67
2022-12-01T13:18:03.265Z,35.85
2022-12-01T13:20:32.105Z,36.20
2022-12-01T13:23:00.963Z,39.33
2022-12-01T13:25:38.264Z,35.05
2022-12-01T13:28:14.348Z,29.38
2022-12-01T13:30:41.335Z,31.17
2022-12-01T13:33:14.493Z,33.67
2022-12-01T13:35:42.416Z,32.75
2022-12-01T13:38:21.704Z,30.63
2022-12-01T13:40:49.114Z,32.55
2022-12-01T13:43:23.233Z,39.90
2022-12-01T13:45:51.505Z,35.60
2022-12-01T13:48:39.200Z,35.45
2022-12-01T13:51:07.167Z,30.95
2022-12-01T13:53:36.993Z,40.75
2022-12-01T13:56:06.590Z,37.55
2022-12-01T13:58:33.293Z,36.67
2022-12-01T14:01:26.287Z,38.72
2022-12-01T14:04:02.708Z,30.73
2022-12-01T14:06:59.901Z,34.00
2022-12-01T14:09:37.244Z,32.95
2022-12-01T14:12:19.804Z,39.88
2022-12-01T14:14:55.987Z,35.92
2022-12-01T14:17:36.477Z,49.38
2022-12-01T14:20:14.700Z,50.45
2022-12-01T14:22:44.774Z,69.80
2022-12-01T14:25:20.614Z,54.85
2022-12-01T14:27:50.223Z,38.15
2022-12-01T14:30:42.075Z,29.70
2022-12-01T14:33:39.984Z,28.77
2022-12-01T14:36:21.945Z,33.85
2022-12-01T14:38:59.989Z,32.75
2022-12-01T14:41:38.765Z,34.10
2022-12-01T14:44:36.036Z,35.85
2022-12-01T14:47:12.543Z,28.63
2022-12-01T14:49:52.838Z,33.47
2022-12-01T14:52:28.643Z,32.15
2022-12-01T14:54:58.752Z,31.52
2022-12-01T14:57:32.162Z,30.38
2022-12-01T15:00:23.066Z,28.98
2022-12-01T15:03:02.828Z,34.50
2022-12-01T15:05:31.691Z,32.72
2022-12-01T15:08:40.812Z,30.70
2022-12-01T15:11:10.855Z,31.10
2022-12-01T15:13:53.656Z,32.90
2022-12-01T15:16:23.569Z,31.58
2022-12-01T15:18:50.450Z,31.88
2022-12-01T15:21:20.623Z,32.10
2022-12-01T15:24:00.713Z,33.65
2022-12-01T15:26:45.582Z,30.83
2022-12-01T15:29:24.280Z,31.83
2022-12-01T15:31:57.993Z,29.45
2022-12-01T15:34:31.549Z,30.88
2022-12-01T15:36:59.571Z,35.53
2022-12-01T15:39:34.821Z,28.05
2022-12-01T15:42:03.098Z,37.78
2022-12-01T15:44:35.736Z,43.20
2022-12-01T15:47:37.834Z,35.05
2022-12-01T15:50:06.470Z,36.00
2022-12-01T15:52:42.946Z,33.92
2022-12-01T15:55:25.784Z,32.45
2022-12-01T15:57:52.799Z,35.13
2022-12-01T16:00:21.392Z,32.55
2022-12-01T16:02:57.390Z,31.70
2022-12-01T16:05:30.821Z,37.08
2022-12-01T16:08:14.043Z,35.28
2022-12-01T16:10:41.166Z,37.08
2022-12-01T16:13:38.715Z,33.58
2022-12-01T16:16:23.159Z,40.13
2022-12-01T16:18:59.192Z,34.88
2022-12-01T16:21:27.123Z,32.03
2022-12-01T16:24:05.746Z,42.97
2022-12-01T16:26:33.850Z,37.67
2022-12-01T16:29:00.745Z,35.78
2022-12-01T16:31:27.772Z,47.35
2022-12-01T16:34:09.820Z,37.50
2022-12-01T16:36:49.715Z,44.20
2022-12-01T16:39:16.907Z,43.08
2022-12-01T16:41:44.879Z,49.20
2022-12-01T16:44:28.246Z,36.33
2022-12-01T16:46:55.723Z,39.50
2022-12-01T16:49:22.652Z,36.88
2022-12-01T16:51:55.889Z,32.28
2022-12-01T16:54:23.865Z,36.47
2022-12-01T16:56:51.284Z,45.63
2022-12-01T16:59:17.985Z,46.53
2022-12-01T17:01:44.756Z,50.17
2022-12-01T17:04:11.548Z,40.95
2022-12-01T17:06:38.524Z,40.20
2022-12-01T17:09:05.979Z,45.78
2022-12-01T17:11:33.212Z,49.38
2022-12-01T17:14:00.088Z,40.35
2022-12-01T17:16:27.092Z,40.95
2022-12-01T17:18:53.835Z,40.88
2022-12-01T17:21:20.533Z,48.53
2022-12-01T17:23:47.320Z,46.97
2022-12-01T17:26:16.735Z,49.85
2022-12-01T17:28:43.591Z,53.10
2022-12-01T17:31:11.050Z,47.38
2022-12-01T17:33:43.971Z,47.00
2022-12-01T17:36:12.512Z,53.33
2022-12-01T17:38:41.762Z,47.92
2022-12-01T17:41:15.838Z,53.90
2022-12-01T17:43:42.793Z,64.60
2022-12-01T17:46:11.644Z,54.50
2022-12-01T17:48:40.666Z,59.85
2022-12-01T17:51:08.991Z,57.60
2022-12-01T17:53:36.627Z,45.67
2022-12-01T17:56:10.190Z,58.90
2022-12-01T17:58:37.752Z,59.30
2022-12-01T18:01:05.712Z,53.30
2022-12-01T18:03:32.573Z,53.40
2022-12-01T18:06:01.865Z,52.10
2022-12-01T18:08:30.441Z,54.50
2022-12-01T18:11:12.499Z,42.63
2022-12-01T18:13:40.901Z,47.63
2022-12-01T18:16:17.443Z,43.10
2022-12-01T18:18:44.421Z,47.08
2022-12-01T18:21:14.346Z,39.30
2022-12-01T18:23:43.260Z,40.35
2022-12-01T18:26:15.767Z,51.17
2022-12-01T18:28:43.275Z,38.55
2022-12-01T18:31:12.404Z,45.22
2022-12-01T18:33:41.082Z,42.22
2022-12-01T18:36:26.398Z,45.28
2022-12-01T18:38:54.506Z,41.15
2022-12-01T18:41:21.559Z,37.47
2022-12-01T18:43:48.434Z,47.95
2022-12-01T18:46:17.402Z,42.83
2022-12-01T18:48:49.957Z,43.97
2022-12-01T18:51:17.596Z,44.60
2022-12-01T18:53:45.566Z,36.85
2022-12-01T18:56:15.046Z,43.83
2022-12-01T18:58:42.215Z,41.08
2022-12-01T19:01:31.293Z,40.13
2022-12-01T19:03:59.713Z,42.45
2022-12-01T19:06:27.934Z,43.88
2022-12-01T19:08:55.588Z,32.17
2022-12-01T19:11:22.470Z,35.65
2022-12-01T19:13:49.897Z,41.45
2022-12-01T19:16:19.167Z,42.53
2022-12-01T19:18:46.272Z,36.25
2022-12-01T19:21:16.094Z,44.78
2022-12-01T19:23:46.419Z,41.88
2022-12-01T19:26:19.708Z,39.33
2022-12-01T19:28:47.927Z,43.88
2022-12-01T19:31:19.698Z,37.15
2022-12-01T19:33:47.222Z,36.10
2022-12-01T19:36:18.577Z,34.60
2022-12-01T19:38:45.783Z,37.60
2022-12-01T19:41:13.856Z,41.63
2022-12-01T19:43:42.257Z,34.42
2022-12-01T19:46:12.039Z,45.10
2022-12-01T19:48:39.162Z,40.25
2022-12-01T19:51:06.137Z,38.58
2022-12-01T19:53:34.014Z,49.45
2022-12-01T19:56:03.205Z,40.63
2022-12-01T19:58:33.255Z,37.83
2022-12-01T20:01:11.966Z,40.25
2022-12-01T20:03:40.666Z,38.47
2022-12-01T20:06:10.047Z,41.47
2022-12-01T20:08:36.900Z,41.42
2022-12-01T20:11:04.854Z,37.05
2022-12-01T20:13:36.503Z,41.47
2022-12-01T20:16:15.891Z,36.50
2022-12-01T20:18:43.270Z,40.58
2022-12-01T20:21:17.072Z,39.50
2022-12-01T20:23:45.760Z,43.83
2022-12-01T20:26:13.628Z,34.42
2022-12-01T20:28:41.022Z,38.30
2022-12-01T20:31:26.387Z,47.28
2022-12-01T20:33:55.520Z,39.03
2022-12-01T20:36:22.366Z,42.25
2022-12-01T20:38:49.345Z,43.90
2022-12-01T20:41:17.188Z,46.60
2022-12-01T20:43:44.055Z,45.25
2022-12-01T20:46:11.930Z,43.15
2022-12-01T20:48:38.919Z,41.30
2022-12-01T20:51:07.953Z,44.95
2022-12-01T20:53:35.372Z,40.05
2022-12-01T20:56:04.482Z,40.30
2022-12-01T20:58:35.987Z,39.65
2022-12-01T21:01:13.452Z,42.40
2022-12-01T21:03:42.315Z,54.90
2022-12-01T21:06:10.473Z,53.58
2022-12-01T21:08:38.567Z,50.38
2022-12-01T21:11:08.323Z,45.10
2022-12-01T21:13:44.257Z,49.40
2022-12-01T21:16:15.730Z,58.22
2022-12-01T21:18:55.829Z,52.33
2022-12-01T21:21:28.199Z,53.35
2022-12-01T21:24:19.882Z,55.05
2022-12-01T21:26:50.148Z,46.22
2022-12-01T21:29:28.476Z,49.90
2022-12-01T21:31:58.881Z,52.08
2022-12-01T21:34:28.496Z,52.53
2022-12-01T21:37:00.057Z,58.65
2022-12-01T21:39:26.830Z,54.67
2022-12-01T21:41:56.800Z,49.08
2022-12-01T21:44:32.881Z,54.42
2022-12-01T21:47:06.156Z,59.17
2022-12-01T21:49:39.000Z,59.75
2022-12-01T21:52:39.813Z,48.75
2022-12-01T21:55:15.519Z,54.35
2022-12-01T21:57:53.216Z,51.00
2022-12-01T22:00:36.854Z,52.47
2022-12-01T22:03:09.568Z,57.95
2022-12-01T22:05:42.271Z,55.15
2022-12-01T22:08:12.346Z,53.58
2022-12-01T22:10:58.993Z,53.15
2022-12-01T22:13:53.803Z,55.55
2022-12-01T22:16:20.841Z,57.75
2022-12-01T22:18:51.812Z,56.75
2022-12-01T22:21:36.695Z,59.33
2022-12-01T22:24:20.649Z,57.85
2022-12-01T22:26:53.419Z,56.50
2022-12-01T22:29:34.965Z,55.20
2022-12-01T22:32:14.027Z,58.45
2022-12-01T22:34:49.897Z,54.22
2022-12-01T22:37:22.417Z,58.55
2022-12-01T22:39:55.354Z,64.50
2022-12-01T22:42:34.009Z,56.88
2022-12-01T22:45:22.981Z,49.60
2022-12-01T22:47:49.974Z,56.03
2022-12-01T22:50:31.206Z,53.70
2022-12-01T22:53:06.300Z,54.30
2022-12-01T22:55:33.982Z,50.28
2022-12-01T22:58:01.139Z,52.75
2022-12-01T23:00:27.862Z,50.50
2022-12-01T23:02:56.329Z,54.47
2022-12-01T23:05:30.715Z,62.35
2022-12-01T23:07:57.732Z,48.08
2022-12-01T23:10:29.005Z,53.70
2022-12-01T23:12:59.424Z,50.85
2022-12-01T23:15:40.545Z,50.17
2022-12-01T23:18:24.847Z,51.03
2022-12-01T23:20:57.265Z,55.83
2022-12-01T23:23:29.962Z,59.03
2022-12-01T23:25:57.522Z,56.50
2022-12-01T23:28:24.814Z,50.28
2022-12-01T23:30:55.010Z,54.05
2022-12-01T23:33:24.012Z,51.70
2022-12-01T23:36:00.332Z,47.08
2022-12-01T23:38:37.438Z,54.42
2022-12-01T23:41:31.894Z,53.45
2022-12-01T23:44:03.632Z,54.17
2022-12-01T23:46:32.067Z,50.97
2022-12-01T23:49:01.257Z,49.42
2022-12-01T23:51:31.956Z,52.72
2022-12-01T23:54:01.479Z,53.15
2022-12-01T23:56:30.821Z,46.88
2022-12-01T23:59:00.668Z,59.65
